Time;durP1;ratioP1;P1;durP2;ratioP2;P2;SDS_P1;SDS_P2;PMS_P1;PMS_P2;Temp;Humidity;BMP_temperature;BMP_pressure;BME280_temperature;BME280_humidity;BME280_pressure;Samples;Min_cycle;Max_cycle;Signal;HPM_P1;HPM_P2
2023/03/20 00:01:23;;;;;;;18.13;8.90;;;;;;;;;;5054111;28;20028;-80
2023/03/20 00:03:49;;;;;;;13.65;7.35;;;;;;;;;;5069446;28;20024;-80
2023/03/20 00:06:17;;;;;;;13.82;7.28;;;;;;;;;;5066537;28;20036;-80
2023/03/20 00:08:46;;;;;;;11.80;6.05;;;;;;;;;;5067409;28;20531;-80
2023/03/20 00:11:27;;;;;;;12.80;6.25;;;;;;;;;;5042784;28;20745;-80
2023/03/20 00:13:55;;;;;;;12.52;6.88;;;;;;;;;;5067837;28;20025;-80
2023/03/20 00:16:22;;;;;;;14.32;7.20;;;;;;;;;;5048434;28;20027;-80
2023/03/20 00:18:48;;;;;;;16.23;7.63;;;;;;;;;;5066371;28;20020;-79
2023/03/20 00:21:18;;;;;;;12.90;6.88;;;;;;;;;;5060535;28;20402;-80
2023/03/20 00:23:43;;;;;;;11.95;6.65;;;;;;;;;;5054536;28;20029;-80
2023/03/20 00:26:19;;;;;;;17.83;6.80;;;;;;;;;;5059036;28;20434;-79
2023/03/20 00:28:46;;;;;;;15.38;7.30;;;;;;;;;;5071563;28;20387;-82
2023/03/20 00:31:30;;;;;;;15.02;6.85;;;;;;;;;;5059067;28;20028;-80
2023/03/20 00:33:59;;;;;;;12.32;5.93;;;;;;;;;;5076579;28;20112;-81
2023/03/20 00:36:25;;;;;;;12.88;5.82;;;;;;;;;;5043058;28;20028;-79
2023/03/20 00:38:50;;;;;;;11.00;5.70;;;;;;;;;;5071000;28;20417;-80
2023/03/20 00:41:21;;;;;;;11.93;5.45;;;;;;;;;;5057786;28;20192;-80
2023/03/20 00:43:49;;;;;;;11.88;5.22;;;;;;;;;;5056225;28;20029;-79
2023/03/20 00:46:15;;;;;;;12.73;4.88;;;;;;;;;;5058538;28;20024;-79
2023/03/20 00:48:42;;;;;;;12.80;4.47;;;;;;;;;;5059730;28;20025;-79
2023/03/20 00:51:08;;;;;;;11.60;4.20;;;;;;;;;;5059791;28;20033;-80
2023/03/20 00:53:34;;;;;;;8.77;4.50;;;;;;;;;;5059919;28;20028;-80
2023/03/20 00:55:59;;;;;;;9.63;4.43;;;;;;;;;;5077091;28;20028;-79
2023/03/20 00:58:25;;;;;;;10.93;5.07;;;;;;;;;;5078363;28;20028;-80
2023/03/20 01:00:51;;;;;;;11.93;4.32;;;;;;;;;;5070362;28;20024;-79
2023/03/20 01:03:19;;;;;;;9.40;4.78;;;;;;;;;;5061762;28;20058;-80
2023/03/20 01:05:45;;;;;;;10.30;4.70;;;;;;;;;;5073674;28;20485;-79
2023/03/20 01:08:19;;;;;;;11.65;4.75;;;;;;;;;;5056619;28;20519;-80
2023/03/20 01:10:46;;;;;;;10.07;4.50;;;;;;;;;;5070279;28;20047;-80
2023/03/20 01:13:20;;;;;;;11.45;5.18;;;;;;;;;;5054068;28;20033;-80
2023/03/20 01:15:47;;;;;;;8.32;4.05;;;;;;;;;;5067912;28;20059;-79
2023/03/20 01:18:14;;;;;;;10.25;4.20;;;;;;;;;;5054009;28;20028;-80
2023/03/20 01:20:39;;;;;;;9.95;4.40;;;;;;;;;;5071557;28;20024;-80
2023/03/20 01:23:05;;;;;;;7.38;4.25;;;;;;;;;;5055621;28;20036;-80
2023/03/20 01:25:30;;;;;;;10.02;4.93;;;;;;;;;;5073352;28;20103;-80
2023/03/20 01:27:56;;;;;;;11.68;4.72;;;;;;;;;;5056975;28;20029;-79
2023/03/20 01:30:22;;;;;;;9.77;4.30;;;;;;;;;;5071162;28;20020;-80
2023/03/20 01:32:47;;;;;;;7.28;3.78;;;;;;;;;;5069375;28;20098;-79
2023/03/20 01:35:20;;;;;;;8.32;4.10;;;;;;;;;;5060570;28;20604;-79
2023/03/20 01:37:47;;;;;;;8.23;3.75;;;;;;;;;;5075048;28;20419;-80
2023/03/20 01:40:28;;;;;;;9.52;4.13;;;;;;;;;;5049352;28;20032;-80
2023/03/20 01:42:54;;;;;;;10.43;3.92;;;;;;;;;;5058524;28;20040;-79
2023/03/20 01:45:22;;;;;;;9.10;4.13;;;;;;;;;;5074584;28;20425;-80
2023/03/20 01:47:48;;;;;;;8.38;4.07;;;;;;;;;;5073281;28;20056;-80
2023/03/20 01:50:18;;;;;;;7.43;4.30;;;;;;;;;;5058994;28;20035;-80
2023/03/20 01:52:44;;;;;;;9.90;4.25;;;;;;;;;;5067690;28;20349;-79
2023/03/20 01:55:10;;;;;;;9.13;3.88;;;;;;;;;;5071579;28;20123;-80
2023/03/20 01:57:36;;;;;;;8.20;4.07;;;;;;;;;;5075928;28;20078;-80
2023/03/20 02:00:20;;;;;;;9.77;4.43;;;;;;;;;;5070569;28;20033;-79
2023/03/20 02:02:47;;;;;;;9.18;4.05;;;;;;;;;;5074464;28;20024;-80
2023/03/20 02:05:15;;;;;;;7.95;3.85;;;;;;;;;;5068028;28;20043;-80
2023/03/20 02:07:44;;;;;;;10.05;4.47;;;;;;;;;;5055235;28;20036;-80
2023/03/20 02:10:14;;;;;;;8.80;4.72;;;;;;;;;;5051950;28;20403;-81
2023/03/20 02:12:41;;;;;;;7.15;3.78;;;;;;;;;;5049319;28;20027;-80
2023/03/20 02:15:07;;;;;;;8.77;4.32;;;;;;;;;;5067555;28;20048;-80
2023/03/20 02:17:32;;;;;;;6.63;4.00;;;;;;;;;;5053249;28;20391;-81
2023/03/20 02:20:22;;;;;;;9.15;4.63;;;;;;;;;;5050016;28;20017;-80
2023/03/20 02:23:12;;;;;;;8.95;4.55;;;;;;;;;;5068212;28;20029;-80
2023/03/20 02:25:56;;;;;;;8.90;4.03;;;;;;;;;;5066296;28;20545;-79
2023/03/20 02:28:43;;;;;;;10.70;4.63;;;;;;;;;;5051057;28;20029;-82
2023/03/20 02:31:27;;;;;;;9.70;4.40;;;;;;;;;;5072075;28;20024;-80
2023/03/20 02:34:30;;;;;;;9.52;4.82;;;;;;;;;;5068926;28;20427;-79
2023/03/20 02:37:05;;;;;;;;;;;;;;;;;;5073755;28;20032;-79
2023/03/20 02:39:53;;;;;;;8.80;4.22;;;;;;;;;;5074611;28;19918;-79
2023/03/20 02:42:43;;;;;;;9.45;4.15;;;;;;;;;;5076454;28;20020;-80
2023/03/20 02:45:24;;;;;;;10.30;4.47;;;;;;;;;;5068948;28;20037;-79
2023/03/20 02:48:12;;;;;;;12.23;4.90;;;;;;;;;;5075037;28;20054;-79
2023/03/20 02:50:47;;;;;;;11.13;4.80;;;;;;;;;;5049012;28;20434;-80
2023/03/20 02:53:51;;;;;;;10.68;5.13;;;;;;;;;;5061911;28;20085;-80
2023/03/20 02:56:29;;;;;;;11.13;4.93;;;;;;;;;;5068901;28;20021;-80
2023/03/20 02:59:11;;;;;;;10.32;5.85;;;;;;;;;;5076163;28;20366;-79
2023/03/20 03:01:44;;;;;;;14.32;7.30;;;;;;;;;;5070499;28;20055;-80
2023/03/20 03:04:22;;;;;;;14.02;7.30;;;;;;;;;;5072610;28;20115;-80
2023/03/20 03:06:50;;;;;;;15.95;8.32;;;;;;;;;;5069978;28;20062;-81
2023/03/20 03:09:24;;;;;;;14.07;6.70;;;;;;;;;;5054495;28;20021;-80
2023/03/20 03:11:59;;;;;;;14.93;7.68;;;;;;;;;;5062637;28;20104;-79
2023/03/20 03:14:30;;;;;;;14.70;7.45;;;;;;;;;;5053830;28;20472;-80
2023/03/20 03:16:59;;;;;;;15.25;7.30;;;;;;;;;;5067826;28;20070;-80
2023/03/20 03:19:27;;;;;;;14.68;7.80;;;;;;;;;;5052207;28;20054;-80
2023/03/20 03:21:52;;;;;;;15.40;7.78;;;;;;;;;;5066108;28;20020;-79
2023/03/20 03:24:33;;;;;;;15.35;7.35;;;;;;;;;;5053685;28;20396;-79
2023/03/20 03:27:01;;;;;;;13.20;7.63;;;;;;;;;;5054882;28;20028;-80
2023/03/20 03:29:31;;;;;;;13.30;7.50;;;;;;;;;;5069751;28;20088;-79
2023/03/20 03:31:57;;;;;;;16.75;8.00;;;;;;;;;;5060237;28;20036;-81
2023/03/20 03:34:23;;;;;;;15.55;7.32;;;;;;;;;;5071712;28;20032;-80
2023/03/20 03:37:07;;;;;;;15.63;8.32;;;;;;;;;;5072779;28;20109;-80
2023/03/20 03:39:45;;;;;;;14.00;8.35;;;;;;;;;;5053852;28;20025;-80
2023/03/20 03:42:26;;;;;;;14.63;8.07;;;;;;;;;;5064696;28;20493;-79
2023/03/20 03:44:57;;;;;;;14.18;8.30;;;;;;;;;;5053115;28;20637;-80
2023/03/20 03:47:47;;;;;;;13.32;7.38;;;;;;;;;;5052109;28;20436;-80
2023/03/20 03:50:27;;;;;;;15.85;9.10;;;;;;;;;;5072398;28;20048;-80
2023/03/20 03:52:56;;;;;;;16.13;8.27;;;;;;;;;;5071482;28;20017;-80
2023/03/20 03:55:25;;;;;;;14.45;7.78;;;;;;;;;;5066964;28;20032;-80
2023/03/20 03:58:15;;;;;;;15.48;7.82;;;;;;;;;;5068430;28;20024;-79
2023/03/20 04:00:42;;;;;;;15.43;8.10;;;;;;;;;;5051123;28;20060;-80
2023/03/20 04:03:09;;;;;;;16.83;7.70;;;;;;;;;;5051459;28;20026;-80
2023/03/20 04:05:40;;;;;;;22.13;7.30;;;;;;;;;;5056556;28;20051;-80
2023/03/20 04:08:06;;;;;;;14.05;7.80;;;;;;;;;;5053039;28;20393;-79
2023/03/20 04:10:32;;;;;;;14.45;7.30;;;;;;;;;;5069856;28;20399;-79
2023/03/20 04:12:57;;;;;;;11.40;6.43;;;;;;;;;;5071984;28;20021;-80
2023/03/20 04:15:22;;;;;;;12.98;6.63;;;;;;;;;;5066349;28;20024;-79
2023/03/20 04:17:48;;;;;;;13.98;6.78;;;;;;;;;;5045095;28;20025;-80
2023/03/20 04:20:15;;;;;;;11.48;6.10;;;;;;;;;;5067359;28;20029;-80
2023/03/20 04:22:40;;;;;;;10.93;6.22;;;;;;;;;;5044944;28;20032;-79
2023/03/20 04:25:08;;;;;;;13.27;6.18;;;;;;;;;;5061275;28;20082;-80
2023/03/20 04:27:34;;;;;;;13.98;6.20;;;;;;;;;;5051194;28;20035;-80
2023/03/20 04:29:59;;;;;;;12.57;6.22;;;;;;;;;;5071320;28;20032;-80
2023/03/20 04:32:25;;;;;;;10.88;6.00;;;;;;;;;;5052350;28;20031;-79
2023/03/20 04:34:51;;;;;;;14.80;6.80;;;;;;;;;;5052943;28;20395;-79
2023/03/20 04:37:17;;;;;;;12.45;5.60;;;;;;;;;;5051204;28;20035;-80
2023/03/20 04:39:42;;;;;;;14.48;6.50;;;;;;;;;;5060891;28;20419;-79
2023/03/20 04:42:08;;;;;;;11.15;5.90;;;;;;;;;;5072751;28;20044;-79
2023/03/20 04:44:34;;;;;;;10.73;6.00;;;;;;;;;;5072339;28;20032;-79
2023/03/20 04:47:00;;;;;;;13.93;6.35;;;;;;;;;;5071042;28;20028;-79
2023/03/20 04:49:25;;;;;;;11.23;6.05;;;;;;;;;;5071432;28;20028;-79
2023/03/20 04:51:51;;;;;;;12.27;6.13;;;;;;;;;;5069898;28;20105;-79
2023/03/20 04:54:16;;;;;;;11.95;6.65;;;;;;;;;;5070983;28;20130;-80
2023/03/20 04:56:42;;;;;;;10.90;5.32;;;;;;;;;;5077031;28;20021;-80
2023/03/20 04:59:07;;;;;;;11.93;6.28;;;;;;;;;;5053847;28;20060;-80
2023/03/20 05:01:32;;;;;;;13.25;5.72;;;;;;;;;;5071167;28;20028;-79
2023/03/20 05:03:59;;;;;;;11.65;5.90;;;;;;;;;;5067412;28;20032;-79
2023/03/20 05:06:30;;;;;;;9.55;5.13;;;;;;;;;;5071781;28;20043;-79
2023/03/20 05:08:57;;;;;;;13.02;6.50;;;;;;;;;;5061092;28;20031;-79
2023/03/20 05:11:24;;;;;;;11.45;5.63;;;;;;;;;;5072895;28;20074;-79
2023/03/20 05:13:49;;;;;;;10.45;5.70;;;;;;;;;;5073090;28;21236;-79
2023/03/20 05:16:15;;;;;;;11.48;6.25;;;;;;;;;;5073624;28;20063;-80
2023/03/20 05:18:40;;;;;;;8.77;5.20;;;;;;;;;;5058190;28;20032;-79
2023/03/20 05:21:06;;;;;;;11.55;5.63;;;;;;;;;;5077090;28;20031;-79
2023/03/20 05:23:32;;;;;;;11.98;5.75;;;;;;;;;;5053116;28;20040;-80
2023/03/20 05:25:57;;;;;;;11.68;5.82;;;;;;;;;;5058674;28;20030;-80
2023/03/20 05:28:22;;;;;;;13.15;6.10;;;;;;;;;;5068633;28;20040;-79
2023/03/20 05:30:48;;;;;;;11.68;5.82;;;;;;;;;;5059700;28;20454;-79
2023/03/20 05:33:13;;;;;;;12.18;6.00;;;;;;;;;;5058410;28;20038;-79
2023/03/20 05:35:39;;;;;;;11.38;5.68;;;;;;;;;;5074057;28;20036;-80
2023/03/20 05:38:05;;;;;;;13.55;6.20;;;;;;;;;;5057249;28;20033;-80
2023/03/20 05:40:30;;;;;;;11.48;6.07;;;;;;;;;;5054128;28;20510;-81
2023/03/20 05:42:56;;;;;;;11.15;6.03;;;;;;;;;;5053574;28;20025;-79
2023/03/20 05:45:21;;;;;;;13.55;5.90;;;;;;;;;;5051571;28;20028;-80
2023/03/20 05:47:47;;;;;;;9.68;5.38;;;;;;;;;;5068108;28;20032;-80
2023/03/20 05:50:12;;;;;;;10.75;5.88;;;;;;;;;;5057026;28;20024;-80
2023/03/20 05:52:38;;;;;;;14.18;6.03;;;;;;;;;;5056029;28;20079;-79
2023/03/20 05:55:04;;;;;;;12.50;6.22;;;;;;;;;;5068369;28;20055;-80
2023/03/20 05:57:30;;;;;;;10.30;5.93;;;;;;;;;;5073401;28;20020;-79
2023/03/20 05:59:55;;;;;;;12.23;5.82;;;;;;;;;;5056783;28;20430;-79
2023/03/20 06:02:21;;;;;;;10.48;5.80;;;;;;;;;;5068424;28;20021;-82
2023/03/20 06:04:46;;;;;;;13.43;5.93;;;;;;;;;;5065232;28;20673;-81
2023/03/20 06:07:12;;;;;;;11.10;5.65;;;;;;;;;;5037256;28;20048;-79
2023/03/20 06:09:37;;;;;;;12.77;6.18;;;;;;;;;;5072167;28;20052;-79
2023/03/20 06:12:06;;;;;;;12.23;6.00;;;;;;;;;;5068563;28;20083;-79
2023/03/20 06:14:31;;;;;;;10.68;5.93;;;;;;;;;;5056729;28;20078;-79
2023/03/20 06:16:57;;;;;;;12.93;6.15;;;;;;;;;;5067129;28;20036;-79
2023/03/20 06:19:22;;;;;;;10.85;5.65;;;;;;;;;;5072224;28;20047;-80
2023/03/20 06:21:48;;;;;;;9.10;5.28;;;;;;;;;;5072059;28;20030;-81
2023/03/20 06:24:14;;;;;;;11.18;5.80;;;;;;;;;;5051569;28;20028;-80
2023/03/20 06:26:40;;;;;;;11.18;6.00;;;;;;;;;;5054472;28;20511;-79
2023/03/20 06:29:05;;;;;;;12.20;5.82;;;;;;;;;;5070282;28;20017;-79
2023/03/20 06:31:30;;;;;;;11.50;5.65;;;;;;;;;;5074796;28;20029;-79
2023/03/20 06:33:56;;;;;;;12.48;6.07;;;;;;;;;;5067359;28;20498;-79
2023/03/20 06:36:22;;;;;;;12.60;6.65;;;;;;;;;;5048301;28;20021;-79
2023/03/20 06:38:47;;;;;;;12.38;6.65;;;;;;;;;;5068421;28;20023;-79
2023/03/20 06:41:13;;;;;;;12.82;6.47;;;;;;;;;;5048578;28;20096;-79
2023/03/20 06:43:38;;;;;;;12.85;6.70;;;;;;;;;;5064152;28;20024;-81
2023/03/20 06:46:05;;;;;;;13.13;6.13;;;;;;;;;;5035799;28;20036;-80
2023/03/20 06:48:31;;;;;;;10.20;5.55;;;;;;;;;;5054919;28;20438;-79
2023/03/20 06:50:56;;;;;;;10.40;5.43;;;;;;;;;;5071924;28;20078;-79
2023/03/20 06:53:21;;;;;;;10.45;5.78;;;;;;;;;;5071811;28;20031;-80
2023/03/20 06:55:48;;;;;;;13.02;5.85;;;;;;;;;;5073236;28;20108;-79
2023/03/20 06:58:14;;;;;;;16.08;6.65;;;;;;;;;;5071089;28;20024;-79
2023/03/20 07:00:40;;;;;;;10.18;5.65;;;;;;;;;;5041493;28;20036;-79
2023/03/20 07:03:05;;;;;;;11.02;5.65;;;;;;;;;;5071995;28;20078;-80
2023/03/20 07:05:31;;;;;;;11.55;5.68;;;;;;;;;;5071670;28;20031;-79
2023/03/20 07:07:57;;;;;;;12.95;5.68;;;;;;;;;;5059165;28;20028;-79
2023/03/20 07:10:23;;;;;;;11.57;5.63;;;;;;;;;;5059216;28;20036;-80
2023/03/20 07:12:49;;;;;;;13.63;5.85;;;;;;;;;;5062332;28;20021;-80
2023/03/20 07:15:15;;;;;;;12.23;5.47;;;;;;;;;;5076953;28;20074;-79
2023/03/20 07:17:41;;;;;;;11.40;5.47;;;;;;;;;;5059273;28;20036;-80
2023/03/20 07:20:07;;;;;;;8.90;4.90;;;;;;;;;;5057327;28;20052;-80
2023/03/20 07:22:33;;;;;;;10.65;5.18;;;;;;;;;;5077199;28;20058;-79
2023/03/20 07:24:58;;;;;;;10.85;5.63;;;;;;;;;;5068062;28;20112;-80
2023/03/20 07:27:25;;;;;;;11.32;5.20;;;;;;;;;;5056866;28;20136;-80
2023/03/20 07:29:50;;;;;;;10.30;5.22;;;;;;;;;;5076223;28;20017;-80
2023/03/20 07:32:15;;;;;;;10.13;5.57;;;;;;;;;;5076737;28;20122;-79
2023/03/20 07:34:41;;;;;;;9.65;4.93;;;;;;;;;;5070502;28;20104;-80
2023/03/20 07:37:06;;;;;;;12.43;5.97;;;;;;;;;;5061258;28;20031;-79
2023/03/20 07:39:32;;;;;;;11.43;5.15;;;;;;;;;;5034632;28;20770;-80
2023/03/20 07:41:57;;;;;;;10.38;5.63;;;;;;;;;;5049210;28;20088;-80
2023/03/20 07:44:22;;;;;;;11.93;5.57;;;;;;;;;;5056546;28;20074;-80
2023/03/20 07:46:48;;;;;;;11.50;5.22;;;;;;;;;;5072907;28;20035;-79
2023/03/20 07:49:17;;;;;;;10.73;5.30;;;;;;;;;;5068051;28;20059;-79
2023/03/20 07:51:43;;;;;;;10.43;5.18;;;;;;;;;;5075150;28;20020;-79
2023/03/20 07:54:08;;;;;;;9.35;5.07;;;;;;;;;;5054933;28;20389;-79
2023/03/20 07:56:34;;;;;;;10.18;5.07;;;;;;;;;;5054028;28;20028;-79
2023/03/20 07:58:59;;;;;;;11.15;5.07;;;;;;;;;;5075844;28;20032;-79
2023/03/20 08:01:25;;;;;;;12.05;5.05;;;;;;;;;;5055985;28;20036;-79
2023/03/20 08:03:50;;;;;;;10.85;4.78;;;;;;;;;;5061257;28;20111;-80
2023/03/20 08:06:16;;;;;;;9.52;5.00;;;;;;;;;;5056851;28;20476;-80
2023/03/20 08:08:41;;;;;;;11.50;4.38;;;;;;;;;;5062004;28;20054;-82
2023/03/20 08:11:07;;;;;;;9.82;4.38;;;;;;;;;;5058895;28;20032;-80
2023/03/20 08:13:32;;;;;;;9.80;4.70;;;;;;;;;;5055498;28;20396;-80
2023/03/20 08:15:58;;;;;;;9.93;4.57;;;;;;;;;;5061920;28;20036;-79
2023/03/20 08:18:23;;;;;;;10.93;5.30;;;;;;;;;;5072768;28;20016;-80
2023/03/20 08:20:49;;;;;;;11.75;4.40;;;;;;;;;;5052655;28;20021;-80
2023/03/20 08:23:15;;;;;;;10.55;4.15;;;;;;;;;;5082693;28;20066;-80
2023/03/20 08:25:41;;;;;;;8.40;4.05;;;;;;;;;;5053919;28;20059;-80
2023/03/20 08:28:06;;;;;;;10.98;4.55;;;;;;;;;;5073505;28;20024;-79
2023/03/20 08:30:37;;;;;;;11.77;4.80;;;;;;;;;;5070429;28;20464;-79
2023/03/20 08:33:03;;;;;;;11.50;4.50;;;;;;;;;;5049407;28;20114;-79
2023/03/20 08:35:29;;;;;;;10.27;4.35;;;;;;;;;;5068316;28;20542;-80
2023/03/20 08:37:54;;;;;;;11.52;4.00;;;;;;;;;;5066567;28;20088;-80
2023/03/20 08:40:20;;;;;;;11.73;4.30;;;;;;;;;;5065120;28;20029;-80
2023/03/20 08:42:45;;;;;;;9.00;4.30;;;;;;;;;;5086321;28;20031;-80
2023/03/20 08:45:12;;;;;;;10.13;4.57;;;;;;;;;;5077309;28;20032;-79
2023/03/20 08:47:37;;;;;;;8.73;4.20;;;;;;;;;;5080473;28;20035;-80
2023/03/20 08:50:03;;;;;;;12.02;4.70;;;;;;;;;;5073716;28;20020;-79
2023/03/20 08:52:28;;;;;;;14.80;4.63;;;;;;;;;;5065513;28;20043;-80
2023/03/20 08:54:54;;;;;;;10.38;3.92;;;;;;;;;;5064374;28;20029;-79
2023/03/20 08:57:19;;;;;;;11.43;4.10;;;;;;;;;;5064289;28;20069;-79
2023/03/20 08:59:45;;;;;;;9.73;4.15;;;;;;;;;;5082236;28;20051;-80
2023/03/20 09:02:10;;;;;;;8.40;3.80;;;;;;;;;;5064952;28;20025;-79
2023/03/20 09:04:36;;;;;;;11.57;4.25;;;;;;;;;;5063277;28;20021;-80
2023/03/20 09:07:02;;;;;;;10.40;4.40;;;;;;;;;;5073991;28;20025;-79
2023/03/20 09:09:28;;;;;;;12.68;4.28;;;;;;;;;;5070691;28;20035;-79
2023/03/20 09:11:57;;;;;;;9.32;4.18;;;;;;;;;;5061498;28;20020;-79
2023/03/20 09:14:23;;;;;;;9.05;4.05;;;;;;;;;;5077604;28;20033;-80
2023/03/20 09:16:49;;;;;;;13.45;4.28;;;;;;;;;;5055232;28;20028;-80
2023/03/20 09:19:15;;;;;;;11.05;4.15;;;;;;;;;;5070661;28;20048;-79
2023/03/20 09:21:40;;;;;;;14.15;4.75;;;;;;;;;;5071374;28;20098;-79
2023/03/20 09:24:07;;;;;;;8.40;3.70;;;;;;;;;;5073555;28;20022;-79
2023/03/20 09:26:32;;;;;;;10.73;4.32;;;;;;;;;;5075941;28;20024;-79
2023/03/20 09:28:58;;;;;;;13.18;4.55;;;;;;;;;;5073049;28;20025;-79
2023/03/20 09:31:23;;;;;;;9.68;4.25;;;;;;;;;;5071670;28;20152;-80
2023/03/20 09:33:49;;;;;;;10.65;4.13;;;;;;;;;;5069720;28;20024;-79
2023/03/20 09:36:14;;;;;;;11.00;4.57;;;;;;;;;;5051870;28;20027;-79
2023/03/20 09:38:41;;;;;;;10.43;4.35;;;;;;;;;;5067670;28;20048;-80
2023/03/20 09:41:21;;;;;;;8.75;3.70;;;;;;;;;;5069682;28;20103;-79
2023/03/20 09:44:05;;;;;;;9.43;3.70;;;;;;;;;;5067244;28;20079;-80
2023/03/20 09:47:07;;;;;;;11.18;4.00;;;;;;;;;;5071776;28;20369;-79
2023/03/20 09:49:45;;;;;;;6.93;3.25;;;;;;;;;;5055485;28;20107;-79
2023/03/20 09:52:29;;;;;;;9.18;3.28;;;;;;;;;;5058810;28;20024;-79
2023/03/20 09:54:59;;;;;;;9.20;3.13;;;;;;;;;;5067329;28;20119;-79
2023/03/20 09:57:38;;;;;;;8.77;3.28;;;;;;;;;;5075143;28;20031;-80
2023/03/20 10:00:27;;;;;;;7.05;3.47;;;;;;;;;;5072910;28;20047;-79
2023/03/20 10:02:59;;;;;;;8.20;3.35;;;;;;;;;;5060004;28;20024;-79
2023/03/20 10:05:49;;;;;;;6.32;3.08;;;;;;;;;;5054513;28;20556;-79
2023/03/20 10:08:16;;;;;;;6.45;2.75;;;;;;;;;;5075073;28;20040;-79
2023/03/20 10:10:56;;;;;;;9.25;3.83;;;;;;;;;;5056203;28;20377;-79
2023/03/20 10:13:52;;;;;;;6.18;2.70;;;;;;;;;;5059736;28;20052;-80
2023/03/20 10:16:39;;;;;;;7.03;3.38;;;;;;;;;;5078300;28;20017;-80
2023/03/20 10:19:17;;;;;;;8.57;3.80;;;;;;;;;;5055393;28;20040;-80
2023/03/20 10:21:48;;;;;;;6.13;3.08;;;;;;;;;;5075265;28;20028;-79
2023/03/20 10:24:20;;;;;;;6.47;3.40;;;;;;;;;;5059786;28;20017;-81
2023/03/20 10:26:47;;;;;;;10.98;3.55;;;;;;;;;;5061747;28;20100;-80
2023/03/20 10:29:22;;;;;;;6.50;3.42;;;;;;;;;;5043412;28;20028;-79
2023/03/20 10:31:59;;;;;;;8.27;2.92;;;;;;;;;;5076841;28;20017;-79
2023/03/20 10:34:46;;;;;;;7.25;3.40;;;;;;;;;;5059518;28;20032;-79
2023/03/20 10:37:35;;;;;;;7.97;3.45;;;;;;;;;;5049690;28;20498;-79
2023/03/20 10:40:07;;;;;;;7.75;3.63;;;;;;;;;;5052402;28;20025;-80
2023/03/20 10:42:39;;;;;;;9.73;3.85;;;;;;;;;;5076036;28;20056;-80
2023/03/20 10:45:17;;;;;;;8.30;3.73;;;;;;;;;;5059564;28;20033;-80
2023/03/20 10:47:47;;;;;;;7.57;3.20;;;;;;;;;;5061768;28;20025;-79
2023/03/20 10:50:18;;;;;;;9.50;3.40;;;;;;;;;;5070994;28;20660;-80
2023/03/20 10:52:45;;;;;;;8.43;3.60;;;;;;;;;;5059385;28;20067;-80
2023/03/20 10:55:21;;;;;;;9.55;3.00;;;;;;;;;;5059728;28;20016;-80
2023/03/20 10:57:54;;;;;;;7.93;3.55;;;;;;;;;;5073985;28;20069;-80
2023/03/20 11:00:23;;;;;;;6.53;3.60;;;;;;;;;;5061874;28;20033;-79
2023/03/20 11:02:48;;;;;;;6.47;3.08;;;;;;;;;;5070077;28;20032;-80
2023/03/20 11:05:26;;;;;;;8.50;3.45;;;;;;;;;;5056816;28;20024;-81
2023/03/20 11:08:04;;;;;;;7.97;3.65;;;;;;;;;;5062636;28;20020;-79
2023/03/20 11:10:32;;;;;;;11.23;4.18;;;;;;;;;;5053161;28;20468;-79
2023/03/20 11:13:02;;;;;;;10.88;3.53;;;;;;;;;;5051896;28;20124;-79
2023/03/20 11:15:33;;;;;;;7.05;3.40;;;;;;;;;;5051349;28;20115;-79
2023/03/20 11:18:04;;;;;;;8.65;3.83;;;;;;;;;;5064822;28;20025;-79
2023/03/20 11:20:42;;;;;;;8.10;3.33;;;;;;;;;;5065472;28;20024;-81
2023/03/20 11:23:15;;;;;;;6.60;3.40;;;;;;;;;;5071425;28;20027;-79
2023/03/20 11:26:05;;;;;;;10.93;3.70;;;;;;;;;;5071678;28;20515;-79
2023/03/20 11:28:39;;;;;;;8.23;3.95;;;;;;;;;;5071724;28;20102;-79
2023/03/20 11:31:13;;;;;;;7.50;3.70;;;;;;;;;;5068111;28;20559;-82
2023/03/20 11:33:42;;;;;;;6.93;4.07;;;;;;;;;;5069065;28;20472;-80
2023/03/20 11:36:29;;;;;;;11.55;4.15;;;;;;;;;;5049387;28;20464;-80
2023/03/20 11:39:15;;;;;;;7.75;3.20;;;;;;;;;;5070386;28;20031;-79
2023/03/20 11:41:46;;;;;;;8.23;3.63;;;;;;;;;;5053936;28;20506;-81
2023/03/20 11:44:26;;;;;;;9.50;3.75;;;;;;;;;;5065521;28;20039;-80
2023/03/20 11:47:06;;;;;;;7.95;3.83;;;;;;;;;;5050768;28;20047;-79
2023/03/20 11:49:44;;;;;;;7.55;3.83;;;;;;;;;;5071774;28;20036;-79
2023/03/20 11:52:14;;;;;;;9.65;3.80;;;;;;;;;;5052643;28;20043;-82
2023/03/20 11:54:47;;;;;;;8.02;3.70;;;;;;;;;;5053048;28;20361;-82
2023/03/20 11:57:40;;;;;;;10.40;4.20;;;;;;;;;;5048209;28;20100;-80
2023/03/20 12:00:24;;;;;;;10.45;4.35;;;;;;;;;;5053716;28;20036;-80
2023/03/20 12:02:50;;;;;;;8.23;4.15;;;;;;;;;;5068871;28;20067;-79
2023/03/20 12:05:28;;;;;;;9.27;3.92;;;;;;;;;;5067856;28;20491;-79
2023/03/20 12:07:57;;;;;;;12.10;4.68;;;;;;;;;;5075851;28;20024;-80
2023/03/20 12:10:30;;;;;;;9.60;4.32;;;;;;;;;;5056986;28;20012;-80
2023/03/20 12:13:32;;;;;;;6.90;3.70;;;;;;;;;;5070526;28;20032;-81
2023/03/20 12:16:04;;;;;;;13.07;4.65;;;;;;;;;;5064668;28;20289;-80
2023/03/20 12:18:56;;;;;;;9.75;3.97;;;;;;;;;;5062968;28;20036;-80
2023/03/20 12:21:44;;;;;;;8.43;4.10;;;;;;;;;;5075566;28;20036;-81
2023/03/20 12:24:24;;;;;;;8.05;4.18;;;;;;;;;;5055295;28;20166;-81
2023/03/20 12:26:59;;;;;;;11.13;4.13;;;;;;;;;;5054340;28;20043;-80
2023/03/20 12:29:30;;;;;;;10.90;4.68;;;;;;;;;;5071790;28;20032;-81
2023/03/20 12:32:45;;;;;;;13.85;4.35;;;;;;;;;;5057812;28;20125;-80
2023/03/20 12:35:31;;;;;;;10.93;4.55;;;;;;;;;;5023498;28;20135;-81
2023/03/20 12:37:57;;;;;;;10.35;3.65;;;;;;;;;;5050719;28;20017;-81
2023/03/20 12:40:41;;;;;;;11.45;4.65;;;;;;;;;;5061115;28;20161;-80
2023/03/20 12:43:29;;;;;;;10.60;3.85;;;;;;;;;;5069628;28;20021;-80
2023/03/20 12:46:08;;;;;;;13.88;4.13;;;;;;;;;;5058098;28;20451;-81
2023/03/20 12:48:58;;;;;;;8.25;3.85;;;;;;;;;;5070835;28;20020;-80
2023/03/20 12:51:39;;;;;;;9.60;4.05;;;;;;;;;;5071221;28;20087;-80
2023/03/20 12:54:31;;;;;;;8.63;4.05;;;;;;;;;;5060440;28;20115;-79
2023/03/20 12:57:10;;;;;;;12.73;4.05;;;;;;;;;;5077991;28;20025;-80
2023/03/20 12:59:39;;;;;;;7.28;4.30;;;;;;;;;;5072530;28;20044;-82
2023/03/20 13:02:26;;;;;;;8.48;4.13;;;;;;;;;;5072730;28;20078;-79
2023/03/20 13:05:12;;;;;;;8.45;4.07;;;;;;;;;;5051743;28;20036;-80
2023/03/20 13:08:17;;;;;;;11.73;4.53;;;;;;;;;;5078964;28;20031;-80
2023/03/20 13:11:02;;;;;;;11.43;4.38;;;;;;;;;;5054946;28;20047;-79
2023/03/20 13:13:39;;;;;;;11.10;4.78;;;;;;;;;;5074949;28;20036;-80
2023/03/20 13:16:42;;;;;;;13.50;4.85;;;;;;;;;;5075102;28;20086;-80
2023/03/20 13:19:30;;;;;;;12.10;4.38;;;;;;;;;;5058600;28;20035;-81
2023/03/20 13:22:24;;;;;;;9.38;4.57;;;;;;;;;;5055467;28;20036;-81
2023/03/20 13:24:56;;;;;;;8.18;4.13;;;;;;;;;;5069277;28;20027;-82
2023/03/20 13:27:39;;;;;;;9.85;4.63;;;;;;;;;;5054497;28;20035;-81
2023/03/20 13:30:25;;;;;;;10.25;4.03;;;;;;;;;;5052203;28;20441;-82
2023/03/20 13:33:19;;;;;;;9.38;4.53;;;;;;;;;;5066030;28;20381;-81
2023/03/20 13:35:51;;;;;;;12.50;4.35;;;;;;;;;;5048910;28;20575;-81
2023/03/20 13:38:27;;;;;;;13.27;4.32;;;;;;;;;;5065408;28;20102;-81
2023/03/20 13:40:59;;;;;;;8.18;4.10;;;;;;;;;;5072579;28;20054;-81
2023/03/20 13:43:30;;;;;;;8.40;4.03;;;;;;;;;;5065045;28;20020;-81
2023/03/20 13:46:06;;;;;;;14.10;4.47;;;;;;;;;;5048476;28;20472;-81
2023/03/20 13:48:37;;;;;;;10.50;4.35;;;;;;;;;;5047133;28;20028;-81
2023/03/20 13:51:17;;;;;;;9.93;4.28;;;;;;;;;;5045329;28;20028;-81
2023/03/20 13:53:42;;;;;;;10.65;4.70;;;;;;;;;;5060713;28;20075;-81
2023/03/20 13:56:21;;;;;;;9.60;4.38;;;;;;;;;;5049975;28;20063;-81
2023/03/20 13:59:32;;;;;;;12.15;4.43;;;;;;;;;;5065477;28;20082;-81
2023/03/20 14:02:44;;;;;;;10.05;3.85;;;;;;;;;;5063920;28;20027;-81
2023/03/20 14:05:15;;;;;;;11.55;4.85;;;;;;;;;;5038170;28;21408;-81
2023/03/20 14:07:46;;;;;;;10.38;4.15;;;;;;;;;;5049055;28;20032;-80
2023/03/20 14:10:20;;;;;;;10.50;4.28;;;;;;;;;;5061731;28;20035;-80
2023/03/20 14:12:53;;;;;;;13.50;4.55;;;;;;;;;;5047352;28;20539;-81
2023/03/20 14:15:19;;;;;;;8.18;3.83;;;;;;;;;;5070472;28;20036;-81
2023/03/20 14:17:50;;;;;;;12.00;4.18;;;;;;;;;;5068323;28;20055;-81
2023/03/20 14:20:37;;;;;;;11.07;3.72;;;;;;;;;;5053518;28;20503;-81
2023/03/20 14:23:03;;;;;;;9.45;3.63;;;;;;;;;;5066443;28;20028;-81
2023/03/20 14:25:37;;;;;;;13.13;4.32;;;;;;;;;;5048528;28;20025;-81
2023/03/20 14:28:22;;;;;;;8.43;3.63;;;;;;;;;;5065881;28;20065;-81
2023/03/20 14:30:50;;;;;;;10.50;4.32;;;;;;;;;;5053031;28;20036;-80
2023/03/20 14:33:15;;;;;;;13.90;3.85;;;;;;;;;;5066229;28;20090;-80
2023/03/20 14:36:21;;;;;;;11.00;4.32;;;;;;;;;;5049853;28;20063;-79
2023/03/20 14:39:05;;;;;;;10.98;3.72;;;;;;;;;;5067846;28;20032;-80
2023/03/20 14:41:57;;;;;;;10.18;3.38;;;;;;;;;;5067253;28;20036;-80
2023/03/20 14:44:29;;;;;;;9.75;3.65;;;;;;;;;;5066230;28;20129;-81
2023/03/20 14:47:25;;;;;;;10.55;3.35;;;;;;;;;;5063478;28;20025;-80
2023/03/20 14:49:57;;;;;;;8.95;3.13;;;;;;;;;;5046800;28;20104;-80
2023/03/20 14:52:36;;;;;;;10.43;3.97;;;;;;;;;;5064356;28;20426;-80
2023/03/20 14:55:29;;;;;;;9.25;3.55;;;;;;;;;;5062721;28;20069;-80
2023/03/20 14:57:56;;;;;;;8.70;3.63;;;;;;;;;;5050677;28;20033;-81
2023/03/20 15:00:27;;;;;;;8.43;3.42;;;;;;;;;;5045042;28;20040;-80
2023/03/20 15:03:01;;;;;;;9.02;3.30;;;;;;;;;;5067999;28;20036;-80
2023/03/20 15:05:32;;;;;;;9.65;3.50;;;;;;;;;;5064322;28;20032;-80